Time;durP1;ratioP1;P1;durP2;ratioP2;P2;SDS_P1;SDS_P2;PMS_P1;PMS_P2;Temp;Humidity;BMP_temperature;BMP_pressure;BME280_temperature;BME280_humidity;BME280_pressure;Samples;Min_cycle;Max_cycle;Signal;HPM_P1;HPM_P2
2021/12/05 00:24:44;;;;;;;;;;;20.60;46.60;;;;;;6240272;28;20110;-51
2021/12/05 00:27:49;;;;;;;;;;;20.50;46.60;;;;;;6232039;28;20761;-50
2021/12/05 00:31:13;;;;;;;;;;;20.80;46.80;;;;;;6231981;28;19994;-49
2021/12/05 00:34:36;;;;;;;;;;;20.70;46.70;;;;;;6212615;28;19986;-51
2021/12/05 00:41:15;;;;;;;;;;;21.00;46.80;;;;;;6215343;28;20309;-47
2021/12/05 00:47:41;;;;;;;;;;;20.40;46.40;;;;;;6232773;28;20168;-48
2021/12/05 01:00:44;;;;;;;;;;;20.50;46.50;;;;;;6246707;28;19928;-53
2021/12/05 01:07:22;;;;;;;;;;;20.90;46.70;;;;;;6241964;28;20700;-51
2021/12/05 01:10:39;;;;;;;;;;;20.30;46.40;;;;;;6239820;28;20086;-49
2021/12/05 01:13:45;;;;;;;;;;;20.70;46.50;;;;;;6241500;28;20039;-51
2021/12/05 01:16:47;;;;;;;;;;;20.70;46.60;;;;;;6239919;28;19925;-51
2021/12/05 01:19:50;;;;;;;;;;;20.50;46.50;;;;;;6236716;28;20223;-49
2021/12/05 01:22:58;;;;;;;;;;;20.70;46.70;;;;;;6246819;28;20047;-54
2021/12/05 01:26:04;;;;;;;;;;;20.40;46.50;;;;;;6251557;28;19927;-52
2021/12/05 01:29:21;;;;;;;;;;;20.40;46.50;;;;;;6253071;28;20114;-51
2021/12/05 01:32:34;;;;;;;;;;;20.30;46.40;;;;;;6249930;28;19993;-50
2021/12/05 01:35:52;;;;;;;;;;;20.80;46.50;;;;;;6250824;28;20003;-55
2021/12/05 01:39:04;;;;;;;;;;;20.70;46.60;;;;;;6249415;28;19967;-55
2021/12/05 02:11:48;;;;;;;;;;;21.00;46.60;;;;;;6222856;28;19975;-55
2021/12/05 02:31:32;;;;;;;;;;;20.40;46.30;;;;;;6238125;28;19924;-48
2021/12/05 02:34:43;;;;;;;;;;;20.30;46.20;;;;;;6237828;28;20022;-48
2021/12/05 02:38:06;;;;;;;;;;;20.30;46.20;;;;;;6239169;28;19931;-48
2021/12/05 02:41:12;;;;;;;;;;;20.70;46.40;;;;;;6242028;28;20043;-49
2021/12/05 02:44:20;;;;;;;;;;;20.70;46.30;;;;;;6240975;28;20378;-50
2021/12/05 02:47:23;;;;;;;;;;;20.70;46.40;;;;;;6222770;28;20244;-51
2021/12/05 02:50:26;;;;;;;;;;;20.10;46.00;;;;;;6216091;28;19986;-51
2021/12/05 02:53:35;;;;;;;;;;;20.70;46.40;;;;;;6220038;28;20433;-49
2021/12/05 02:56:40;;;;;;;;;;;20.30;46.20;;;;;;6236615;28;19937;-52
2021/12/05 02:59:47;;;;;;;;;;;20.50;46.30;;;;;;6237052;28;19925;-49
2021/12/05 03:02:52;;;;;;;;;;;20.30;46.10;;;;;;6237918;28;20387;-48
2021/12/05 03:05:59;;;;;;;;;;;20.60;46.30;;;;;;6234223;28;20309;-49
2021/12/05 03:09:03;;;;;;;;;;;20.60;46.30;;;;;;6219925;28;20218;-48
2021/12/05 03:12:05;;;;;;;;;;;20.30;46.20;;;;;;6236662;28;19928;-48
2021/12/05 03:15:10;;;;;;;;;;;20.40;46.10;;;;;;6223262;28;20396;-53
2021/12/05 03:18:11;;;;;;;;;;;20.30;46.20;;;;;;6240171;28;19928;-49
2021/12/05 03:21:13;;;;;;;;;;;20.10;46.10;;;;;;6234229;28;19928;-48
2021/12/05 03:24:16;;;;;;;;;;;20.50;46.20;;;;;;6221026;28;20215;-50
2021/12/05 03:27:18;;;;;;;;;;;20.40;46.20;;;;;;6223477;28;19924;-48
2021/12/05 03:30:24;;;;;;;;;;;20.10;46.00;;;;;;6240500;28;19928;-51
2021/12/05 03:33:26;;;;;;;;;;;20.10;45.90;;;;;;6240898;28;19935;-53
2021/12/05 03:36:30;;;;;;;;;;;20.30;46.10;;;;;;6220927;28;20245;-49
2021/12/05 03:39:32;;;;;;;;;;;20.10;46.00;;;;;;6255388;28;19927;-54
2021/12/05 03:42:34;;;;;;;;;;;20.50;46.20;;;;;;6240922;28;19945;-50
2021/12/05 03:45:41;;;;;;;;;;;20.50;46.20;;;;;;6226661;28;19924;-48
2021/12/05 03:48:45;;;;;;;;;;;20.50;46.10;;;;;;6222234;28;20184;-48
2021/12/05 03:51:48;;;;;;;;;;;20.40;46.10;;;;;;6219792;28;20022;-48
2021/12/05 03:54:51;;;;;;;;;;;20.40;46.10;;;;;;6236270;28;20011;-49
2021/12/05 03:57:53;;;;;;;;;;;20.40;46.10;;;;;;6238406;28;20168;-51
2021/12/05 04:00:55;;;;;;;;;;;20.40;46.10;;;;;;6240386;28;20213;-55
2021/12/05 04:03:58;;;;;;;;;;;20.20;45.90;;;;;;6241392;28;21073;-49
2021/12/05 04:07:00;;;;;;;;;;;20.10;45.90;;;;;;6237668;28;20362;-49
2021/12/05 04:10:03;;;;;;;;;;;19.90;45.80;;;;;;6203376;28;20426;-51
2021/12/05 04:13:05;;;;;;;;;;;20.10;45.90;;;;;;6243483;28;19924;-49
2021/12/05 04:16:07;;;;;;;;;;;20.50;46.10;;;;;;6243495;28;20311;-47
2021/12/05 04:19:09;;;;;;;;;;;20.60;46.20;;;;;;6243514;28;19975;-52
2021/12/05 04:22:11;;;;;;;;;;;20.00;45.90;;;;;;6243798;28;20223;-48
2021/12/05 04:25:16;;;;;;;;;;;20.30;46.10;;;;;;6244828;28;19928;-51
2021/12/05 04:28:19;;;;;;;;;;;20.10;45.90;;;;;;6224599;28;20421;-49
2021/12/05 04:31:21;;;;;;;;;;;20.50;46.10;;;;;;6254915;28;19999;-48
2021/12/05 04:34:24;;;;;;;;;;;20.20;45.90;;;;;;6241154;28;20158;-48
2021/12/05 04:37:26;;;;;;;;;;;20.20;45.90;;;;;;6226130;28;20358;-52
2021/12/05 04:40:28;;;;;;;;;;;20.10;45.90;;;;;;6242303;28;19930;-50
2021/12/05 04:43:36;;;;;;;;;;;20.50;46.10;;;;;;6221652;28;19925;-51
2021/12/05 04:46:37;;;;;;;;;;;20.40;46.00;;;;;;6240899;28;20271;-51
2021/12/05 04:49:40;;;;;;;;;;;20.20;45.90;;;;;;6241249;28;20051;-49
2021/12/05 04:52:44;;;;;;;;;;;20.20;45.90;;;;;;6241367;28;20037;-49
2021/12/05 04:55:49;;;;;;;;;;;20.00;45.70;;;;;;6237907;28;20446;-48
2021/12/05 04:58:52;;;;;;;;;;;20.20;45.80;;;;;;6240210;28;19928;-48
2021/12/05 05:01:57;;;;;;;;;;;20.40;46.50;;;;;;6241547;28;20482;-48
2021/12/05 05:04:59;;;;;;;;;;;20.00;45.70;;;;;;6240853;28;20338;-49
2021/12/05 05:08:01;;;;;;;;;;;20.10;45.80;;;;;;6239098;28;19933;-50
2021/12/05 05:11:04;;;;;;;;;;;20.00;45.80;;;;;;6240047;28;19972;-48
2021/12/05 05:14:08;;;;;;;;;;;20.40;45.90;;;;;;6221742;28;20180;-50
2021/12/05 05:17:09;;;;;;;;;;;20.50;46.00;;;;;;6234637;28;20243;-51
2021/12/05 05:20:21;;;;;;;;;;;20.40;46.00;;;;;;6232466;28;20067;-51
2021/12/05 05:23:39;;;;;;;;;;;20.10;45.80;;;;;;6220732;28;20027;-48
2021/12/05 05:30:22;;;;;;;;;;;19.90;45.70;;;;;;6238728;28;19935;-49
2021/12/05 05:43:21;;;;;;;;;;;20.00;45.70;;;;;;6239349;28;20020;-49
2021/12/05 05:46:25;;;;;;;;;;;20.30;45.90;;;;;;6239181;28;20034;-50
2021/12/05 05:49:35;;;;;;;;;;;20.50;45.90;;;;;;6232105;28;20035;-52
2021/12/05 05:52:36;;;;;;;;;;;20.20;45.70;;;;;;6232089;28;20041;-49
2021/12/05 05:55:38;;;;;;;;;;;20.40;45.80;;;;;;6233247;28;20372;-48
2021/12/05 05:58:44;;;;;;;;;;;20.00;45.60;;;;;;6233531;28;20029;-50
2021/12/05 06:03:18;;;;;;;;;;;20.40;45.80;;;;;;6232876;28;20048;-49
2021/12/05 06:05:20;;;;;;;;;;;20.40;45.90;;;;;;6238070;28;20239;-50
2021/12/05 06:08:24;;;;;;;;;;;20.10;45.70;;;;;;6217569;28;20322;-53
2021/12/05 06:11:26;;;;;;;;;;;20.10;45.60;;;;;;6213964;28;20290;-48
2021/12/05 06:14:29;;;;;;;;;;;20.00;45.70;;;;;;6237204;28;20206;-50
2021/12/05 06:17:30;;;;;;;;;;;20.10;45.70;;;;;;6232699;28;20620;-48
2021/12/05 06:20:32;;;;;;;;;;;20.10;45.70;;;;;;6229215;28;20220;-50
2021/12/05 06:23:35;;;;;;;;;;;20.30;45.80;;;;;;6231372;28;20458;-48
2021/12/05 06:26:37;;;;;;;;;;;20.00;45.60;;;;;;6213848;28;19986;-48
2021/12/05 06:29:46;;;;;;;;;;;20.30;45.80;;;;;;6232807;28;19935;-50
2021/12/05 06:39:27;;;;;;;;;;;19.90;45.60;;;;;;6229147;28;20783;-50
2021/12/05 06:42:48;;;;;;;;;;;19.90;45.60;;;;;;6215755;28;20050;-51
2021/12/05 06:46:02;;;;;;;;;;;19.90;45.60;;;;;;6229343;28;20204;-52
2021/12/05 06:49:04;;;;;;;;;;;19.80;45.60;;;;;;6227770;28;19929;-48
2021/12/05 06:52:07;;;;;;;;;;;20.30;45.90;;;;;;6230221;28;20488;-48
2021/12/05 06:55:09;;;;;;;;;;;20.10;45.70;;;;;;6213890;28;20219;-48
2021/12/05 06:58:10;;;;;;;;;;;19.90;45.60;;;;;;6232765;28;19929;-50
2021/12/05 07:01:13;;;;;;;;;;;20.00;45.70;;;;;;6230687;28;19935;-49
2021/12/05 07:04:33;;;;;;;;;;;19.90;45.70;;;;;;6211143;28;20118;-47
2021/12/05 07:07:38;;;;;;;;;;;19.90;45.60;;;;;;6228876;28;20047;-50
2021/12/05 07:10:47;;;;;;;;;;;20.00;45.70;;;;;;6231610;28;20146;-50
2021/12/05 07:17:05;;;;;;;;;;;20.10;45.70;;;;;;6215244;28;20972;-49
2021/12/05 07:20:22;;;;;;;;;;;20.20;45.90;;;;;;6227787;28;20757;-49
2021/12/05 07:23:38;;;;;;;;;;;19.80;45.50;;;;;;6229242;28;19935;-50
2021/12/05 07:27:02;;;;;;;;;;;20.20;45.80;;;;;;6226205;28;20453;-50
2021/12/05 07:43:09;;;;;;;;;;;19.90;45.60;;;;;;6227187;28;20250;-48
2021/12/05 07:46:11;;;;;;;;;;;20.10;45.70;;;;;;6234214;28;20031;-49
2021/12/05 07:49:14;;;;;;;;;;;20.30;45.80;;;;;;6228015;28;20509;-47
2021/12/05 07:52:20;;;;;;;;;;;20.20;45.80;;;;;;6231554;28;19994;-48
2021/12/05 07:55:26;;;;;;;;;;;20.40;45.90;;;;;;6229825;28;20058;-48
2021/12/05 07:58:48;;;;;;;;;;;19.90;45.60;;;;;;6232514;28;20392;-50
2021/12/05 08:14:54;;;;;;;;;;;19.90;45.60;;;;;;6231534;28;20059;-50
2021/12/05 08:17:58;;;;;;;;;;;19.70;45.50;;;;;;6228435;28;20210;-49
2021/12/05 08:21:01;;;;;;;;;;;19.90;45.70;;;;;;6226110;28;19970;-52
2021/12/05 08:24:04;;;;;;;;;;;19.80;45.50;;;;;;6209339;28;20356;-47
2021/12/05 08:27:06;;;;;;;;;;;20.50;45.70;;;;;;6201155;28;19928;-50
2021/12/05 08:30:11;;;;;;;;;;;19.90;45.40;;;;;;6229379;28;19928;-48
2021/12/05 08:33:30;;;;;;;;;;;19.80;45.20;;;;;;6231840;28;20632;-48
2021/12/05 08:37:03;;;;;;;;;;;19.80;45.20;;;;;;6223519;28;19932;-49
2021/12/05 10:11:16;;;;;;;;;;;20.20;44.50;;;;;;6244119;28;20505;-48
2021/12/05 10:14:32;;;;;;;;;;;20.40;44.60;;;;;;6228181;28;20270;-48
2021/12/05 10:17:50;;;;;;;;;;;20.60;44.60;;;;;;6230203;28;20230;-47
2021/12/05 10:34:10;;;;;;;;;;;20.60;44.50;;;;;;6232587;28;20501;-49
2021/12/05 10:37:14;;;;;;;;;;;20.80;44.50;;;;;;6234056;28;21068;-50
2021/12/05 10:40:19;;;;;;;;;;;20.90;44.60;;;;;;6227261;28;20371;-51
2021/12/05 10:43:23;;;;;;;;;;;20.40;44.20;;;;;;6233183;28;20002;-49
2021/12/05 10:46:26;;;;;;;;;;;20.50;44.20;;;;;;6234565;28;20613;-49
2021/12/05 10:49:30;;;;;;;;;;;20.60;44.30;;;;;;6230908;28;19928;-50
2021/12/05 10:52:31;;;;;;;;;;;20.80;44.40;;;;;;6230061;28;20181;-51
2021/12/05 10:55:33;;;;;;;;;;;20.50;44.20;;;;;;6236448;28;19935;-48
2021/12/05 10:58:37;;;;;;;;;;;20.60;44.30;;;;;;6232693;28;20175;-50
2021/12/05 11:01:40;;;;;;;;;;;20.50;44.10;;;;;;6228357;28;20871;-48
2021/12/05 11:04:43;;;;;;;;;;;20.80;44.20;;;;;;6235459;28;20344;-52
2021/12/05 11:07:44;;;;;;;;;;;21.10;44.40;;;;;;6209747;28;20488;-47
2021/12/05 11:10:45;;;;;;;;;;;20.80;44.20;;;;;;6233543;28;20136;-53
2021/12/05 11:13:47;;;;;;;;;;;21.00;44.30;;;;;;6236648;28;20029;-48
2021/12/05 11:16:58;;;;;;;;;;;21.10;44.30;;;;;;6231944;28;20400;-52
2021/12/05 11:20:07;;;;;;;;;;;20.70;44.20;;;;;;6229994;28;19924;-51
2021/12/05 11:23:17;;;;;;;;;;;20.60;44.00;;;;;;6231386;28;19931;-47
2021/12/05 11:26:18;;;;;;;;;;;20.70;44.10;;;;;;6229888;28;20685;-49
2021/12/05 11:29:22;;;;;;;;;;;20.90;44.10;;;;;;6230224;28;20011;-48
2021/12/05 11:32:31;;;;;;;;;;;20.90;44.10;;;;;;6232517;28;20021;-49
2021/12/05 11:35:34;;;;;;;;;;;20.70;43.90;;;;;;6213062;28;19997;-51
2021/12/05 11:38:36;;;;;;;;;;;21.20;44.10;;;;;;6231442;28;19924;-50
2021/12/05 11:41:38;;;;;;;;;;;21.30;44.20;;;;;;6233868;28;19971;-49
2021/12/05 11:44:40;;;;;;;;;;;21.20;44.10;;;;;;6210391;28;20010;-47
2021/12/05 11:47:42;;;;;;;;;;;21.10;44.10;;;;;;6228171;28;19937;-51
2021/12/05 11:50:44;;;;;;;;;;;20.80;43.90;;;;;;6230287;28;20391;-49
2021/12/05 11:53:46;;;;;;;;;;;21.20;44.00;;;;;;6234411;28;19928;-47
2021/12/05 11:56:49;;;;;;;;;;;20.90;43.80;;;;;;6209642;28;19935;-48
2021/12/05 11:59:52;;;;;;;;;;;20.80;43.70;;;;;;6233542;28;20499;-51
2021/12/05 12:02:54;;;;;;;;;;;21.00;43.80;;;;;;6214041;28;20679;-50
2021/12/05 12:05:56;;;;;;;;;;;21.10;43.90;;;;;;6231729;28;20397;-48
2021/12/05 12:08:57;;;;;;;;;;;21.40;44.00;;;;;;6233126;28;19971;-52
2021/12/05 12:12:00;;;;;;;;;;;20.90;43.70;;;;;;6228516;28;19971;-50
2021/12/05 12:15:01;;;;;;;;;;;20.80;43.60;;;;;;6235215;28;19928;-52
2021/12/05 12:18:08;;;;;;;;;;;20.90;43.70;;;;;;6228374;28;20050;-50
2021/12/05 12:21:12;;;;;;;;;;;21.10;43.90;;;;;;6226986;28;20033;-52
2021/12/05 12:24:15;;;;;;;;;;;21.10;43.70;;;;;;6228395;28;20266;-52
2021/12/05 12:27:17;;;;;;;;;;;21.00;43.70;;;;;;6227355;28;20223;-49
2021/12/05 12:30:24;;;;;;;;;;;21.10;43.70;;;;;;6230766;28;20021;-47
2021/12/05 12:33:31;;;;;;;;;;;21.00;43.60;;;;;;6228006;28;20340;-48
2021/12/05 12:36:35;;;;;;;;;;;21.10;43.70;;;;;;6227273;28;20359;-49
2021/12/05 12:39:38;;;;;;;;;;;21.10;43.60;;;;;;6226353;28;19928;-50
2021/12/05 12:42:39;;;;;;;;;;;21.20;43.60;;;;;;6213498;28;19924;-51
2021/12/05 12:45:41;;;;;;;;;;;21.40;43.80;;;;;;6228835;28;19939;-48
2021/12/05 12:48:43;;;;;;;;;;;21.50;43.80;;;;;;6216116;28;20406;-52
2021/12/05 12:51:46;;;;;;;;;;;21.20;43.60;;;;;;6209626;28;20299;-48
2021/12/05 12:54:50;;;;;;;;;;;21.20;43.60;;;;;;6228752;28;20047;-49
2021/12/05 12:57:51;;;;;;;;;;;21.10;43.50;;;;;;6226575;28;19928;-48
2021/12/05 13:00:52;;;;;;;;;;;21.00;43.50;;;;;;6224519;28;20165;-50
2021/12/05 13:04:26;;;;;;;;;;;21.60;43.80;;;;;;6231490;28;19993;-53
2021/12/05 13:10:42;;;;;;;;;;;21.20;43.50;;;;;;6218629;28;20220;-49
2021/12/05 13:13:46;;;;;;;;;;;21.20;43.50;;;;;;6214576;28;19954;-51
2021/12/05 13:16:48;;;;;;;;;;;21.60;43.70;;;;;;6216800;28;21660;-55
2021/12/05 13:19:56;;;;;;;;;;;21.10;43.40;;;;;;6220590;28;20932;-55
2021/12/05 13:23:00;;;;;;;;;;;21.50;43.60;;;;;;6215006;28;20400;-50
2021/12/05 13:26:05;;;;;;;;;;;21.50;43.60;;;;;;6230535;28;20078;-48
2021/12/05 13:29:11;;;;;;;;;;;21.30;43.50;;;;;;6225738;28;20171;-51
2021/12/05 13:32:13;;;;;;;;;;;21.60;43.60;;;;;;6213145;28;20263;-49
2021/12/05 13:35:24;;;;;;;;;;;21.10;43.40;;;;;;6212190;28;20019;-54
2021/12/05 13:38:34;;;;;;;;;;;21.60;43.70;;;;;;6210750;28;20421;-48
2021/12/05 13:41:36;;;;;;;;;;;21.50;43.60;;;;;;6210343;28;19939;-48
2021/12/05 13:44:48;;;;;;;;;;;21.70;43.60;;;;;;6230446;28;20380;-51
2021/12/05 13:48:04;;;;;;;;;;;21.30;43.50;;;;;;6229798;28;20330;-48
2021/12/05 13:51:22;;;;;;;;;;;21.40;43.50;;;;;;6228786;28;19928;-49
2021/12/05 13:54:24;;;;;;;;;;;21.40;43.50;;;;;;6228631;28;20002;-49
2021/12/05 13:57:25;;;;;;;;;;;21.50;43.50;;;;;;6228183;28;19924;-49
2021/12/05 14:00:37;;;;;;;;;;;21.50;43.50;;;;;;6226930;28;21440;-50
2021/12/05 14:03:40;;;;;;;;;;;21.40;43.50;;;;;;6205745;28;19924;-49
2021/12/05 14:06:47;;;;;;;;;;;21.40;43.40;;;;;;6211307;28;19976;-52
2021/12/05 14:09:48;;;;;;;;;;;21.50;43.50;;;;;;6228492;28;20164;-50
2021/12/05 14:12:50;;;;;;;;;;;21.70;43.60;;;;;;6231419;28;20562;-52
2021/12/05 14:15:57;;;;;;;;;;;21.30;43.40;;;;;;6225132;28;20034;-50
2021/12/05 14:18:58;;;;;;;;;;;21.70;43.60;;;;;;6227067;28;20279;-49
2021/12/05 14:22:01;;;;;;;;;;;21.50;43.50;;;;;;6226943;28;19936;-49
2021/12/05 14:25:05;;;;;;;;;;;21.70;43.60;;;;;;6226837;28;19955;-50
2021/12/05 14:28:07;;;;;;;;;;;21.70;43.60;;;;;;6228197;28;19935;-50
2021/12/05 14:31:08;;;;;;;;;;;21.50;43.50;;;;;;6227560;28;20348;-49
2021/12/05 14:34:11;;;;;;;;;;;21.60;43.50;;;;;;6228510;28;20378;-51
2021/12/05 14:37:14;;;;;;;;;;;21.40;43.40;;;;;;6222908;28;19970;-48
2021/12/05 14:40:17;;;;;;;;;;;21.60;43.50;;;;;;6229194;28;20505;-51
2021/12/05 14:43:19;;;;;;;;;;;21.60;43.50;;;;;;6226470;28;19928;-50
2021/12/05 14:46:20;;;;;;;;;;;21.60;43.50;;;;;;6232298;28;19931;-51
2021/12/05 14:49:23;;;;;;;;;;;21.30;43.30;;;;;;6227502;28;19999;-48
2021/12/05 14:52:26;;;;;;;;;;;21.80;43.60;;;;;;6203877;28;20051;-51
2021/12/05 14:55:28;;;;;;;;;;;21.40;43.40;;;;;;6221023;28;19925;-49
2021/12/05 14:58:30;;;;;;;;;;;21.40;43.40;;;;;;6201514;28;20478;-49
2021/12/05 15:01:32;;;;;;;;;;;21.40;43.40;;;;;;6222839;28;19928;-48
2021/12/05 15:04:35;;;;;;;;;;;21.70;43.50;;;;;;6224165;28;20261;-50
2021/12/05 15:07:37;;;;;;;;;;;21.40;43.40;;;;;;6221020;28;19963;-49
2021/12/05 15:10:41;;;;;;;;;;;21.60;43.50;;;;;;6199801;28;19928;-50
2021/12/05 15:13:42;;;;;;;;;;;21.80;43.60;;;;;;6222267;28;20376;-51
2021/12/05 15:16:50;;;;;;;;;;;21.40;43.40;;;;;;6222892;28;19928;-49
2021/12/05 15:19:52;;;;;;;;;;;21.40;43.30;;;;;;6219583;28;20005;-51
2021/12/05 15:23:14;;;;;;;;;;;21.40;43.30;;;;;;6229659;28;20287;-50
2021/12/05 15:26:15;;;;;;;;;;;21.40;43.40;;;;;;6214575;28;20263;-50
2021/12/05 15:29:17;;;;;;;;;;;21.60;43.40;;;;;;6233806;28;19932;-48
2021/12/05 15:32:39;;;;;;;;;;;21.40;43.40;;;;;;6214523;28;20672;-48
2021/12/05 15:35:43;;;;;;;;;;;21.70;43.50;;;;;;6212164;28;19924;-48
2021/12/05 15:38:45;;;;;;;;;;;21.50;43.40;;;;;;6231906;28;19931;-48
2021/12/05 15:41:48;;;;;;;;;;;21.20;43.20;;;;;;6229439;28;20652;-51
2021/12/05 15:44:51;;;;;;;;;;;21.70;43.50;;;;;;6212086;28;20251;-48
2021/12/05 15:47:53;;;;;;;;;;;21.80;43.60;;;;;;6210108;28;20038;-50
2021/12/05 15:50:54;;;;;;;;;;;21.40;43.30;;;;;;6224706;28;20264;-47
2021/12/05 15:53:58;;;;;;;;;;;21.90;43.60;;;;;;6208360;28;19924;-50
2021/12/05 15:57:06;;;;;;;;;;;21.30;43.20;;;;;;6228017;28;19928;-47
2021/12/05 16:00:10;;;;;;;;;;;21.60;43.40;;;;;;6225258;28;20160;-49
2021/12/05 16:03:13;;;;;;;;;;;21.50;43.40;;;;;;6204706;28;19936;-49
2021/12/05 16:06:15;;;;;;;;;;;21.80;43.50;;;;;;6218986;28;20053;-48
2021/12/05 16:09:18;;;;;;;;;;;21.50;43.40;;;;;;6205985;28;20059;-47
2021/12/05 16:12:20;;;;;;;;;;;21.30;43.30;;;;;;6207323;28;20015;-50
2021/12/05 16:15:25;;;;;;;;;;;21.70;43.40;;;;;;6239876;28;20043;-49
2021/12/05 16:18:31;;;;;;;;;;;21.80;43.50;;;;;;6223924;28;20173;-50
2021/12/05 16:21:33;;;;;;;;;;;21.60;43.30;;;;;;6220401;28;19932;-49
2021/12/05 16:24:40;;;;;;;;;;;21.40;43.30;;;;;;6220179;28;20234;-49
2021/12/05 16:27:46;;;;;;;;;;;21.70;43.40;;;;;;6221611;28;20297;-47
2021/12/05 16:30:48;;;;;;;;;;;21.30;43.20;;;;;;6223797;28;20289;-49
2021/12/05 16:33:51;;;;;;;;;;;21.50;43.30;;;;;;6225987;28;20063;-53
2021/12/05 16:36:53;;;;;;;;;;;21.60;43.40;;;;;;6202527;28;19971;-48
2021/12/05 16:39:55;;;;;;;;;;;21.40;43.30;;;;;;6218971;28;20618;-51
2021/12/05 16:43:06;;;;;;;;;;;21.80;43.50;;;;;;6181514;28;20306;-50
2021/12/05 16:46:10;;;;;;;;;;;21.80;43.50;;;;;;6200449;28;21152;-49
2021/12/05 16:49:14;;;;;;;;;;;21.60;43.40;;;;;;6215390;28;20064;-47
2021/12/05 16:52:21;;;;;;;;;;;21.40;43.30;;;;;;6226820;28;20005;-51
2021/12/05 16:55:26;;;;;;;;;;;21.70;43.50;;;;;;6235512;28;19988;-53
2021/12/05 16:58:27;;;;;;;;;;;21.50;43.30;;;;;;6228778;28;19928;-52
2021/12/05 17:01:29;;;;;;;;;;;21.50;43.40;;;;;;6224487;28;20051;-55
2021/12/05 17:04:39;;;;;;;;;;;21.60;43.40;;;;;;6231720;28;19928;-55
2021/12/05 17:07:43;;;;;;;;;;;21.60;43.40;;;;;;6234404;28;20059;-53
2021/12/05 17:10:47;;;;;;;;;;;21.30;43.20;;;;;;6206429;28;19928;-50
2021/12/05 17:13:49;;;;;;;;;;;21.40;43.30;;;;;;6206765;28;20031;-51
2021/12/05 17:16:51;;;;;;;;;;;21.80;43.50;;;;;;6215322;28;19932;-53
2021/12/05 17:19:53;;;;;;;;;;;21.50;43.30;;;;;;6216194;28;19928;-50
2021/12/05 17:22:55;;;;;;;;;;;21.50;43.60;;;;;;6230692;28;20902;-49
2021/12/05 17:26:05;;;;;;;;;;;21.30;43.30;;;;;;6232625;28;19973;-55
2021/12/05 17:29:07;;;;;;;;;;;21.40;43.40;;;;;;6238752;28;20009;-54
2021/12/05 17:32:10;;;;;;;;;;;21.60;43.50;;;;;;6222294;28;19928;-52
2021/12/05 17:35:12;;;;;;;;;;;21.40;43.40;;;;;;6234960;28;19969;-53
2021/12/05 17:38:13;;;;;;;;;;;21.20;43.30;;;;;;6235677;28;20614;-54
2021/12/05 17:41:15;;;;;;;;;;;21.20;43.40;;;;;;6237101;28;20044;-54
2021/12/05 17:44:18;;;;;;;;;;;21.30;43.40;;;;;;6241963;28;20948;-53
2021/12/05 17:47:20;;;;;;;;;;;21.40;43.50;;;;;;6220392;28;20052;-53
2021/12/05 17:50:23;;;;;;;;;;;21.60;43.60;;;;;;6237439;28;19920;-52
2021/12/05 17:53:32;;;;;;;;;;;20.90;43.30;;;;;;6236329;28;21350;-53
2021/12/05 17:56:39;;;;;;;;;;;21.20;43.40;;;;;;6233909;28;19932;-53
2021/12/05 17:59:56;;;;;;;;;;;21.30;43.50;;;;;;6218698;28;19934;-54
2021/12/05 18:02:58;;;;;;;;;;;21.20;43.50;;;;;;6224351;28;19939;-52
2021/12/05 18:05:59;;;;;;;;;;;21.30;43.60;;;;;;6235497;28;19928;-53
2021/12/05 18:09:01;;;;;;;;;;;21.00;43.50;;;;;;6236548;28;20912;-53
2021/12/05 18:12:06;;;;;;;;;;;21.20;43.60;;;;;;6237130;28;19931;-52
2021/12/05 18:15:12;;;;;;;;;;;21.60;43.80;;;;;;6218735;28;20031;-53
2021/12/05 18:18:15;;;;;;;;;;;21.60;43.90;;;;;;6239701;28;19934;-55
2021/12/05 18:21:18;;;;;;;;;;;21.10;43.60;;;;;;6241146;28;21337;-52
2021/12/05 18:24:20;;;;;;;;;;;21.10;43.60;;;;;;6223540;28;20027;-53
2021/12/05 18:27:22;;;;;;;;;;;21.10;43.60;;;;;;6221834;28;19968;-50
2021/12/05 18:30:25;;;;;;;;;;;21.30;43.70;;;;;;6234900;28;19994;-53
2021/12/05 18:33:29;;;;;;;;;;;21.20;43.70;;;;;;6242116;28;20047;-53
2021/12/05 18:36:32;;;;;;;;;;;21.00;43.60;;;;;;6238406;28;19936;-51
2021/12/05 18:39:36;;;;;;;;;;;20.80;44.10;;;;;;6237183;28;19928;-54
2021/12/05 18:42:39;;;;;;;;;;;21.00;43.60;;;;;;6238172;28;20013;-52
2021/12/05 18:45:42;;;;;;;;;;;20.90;43.60;;;;;;6240250;28;20773;-53
2021/12/05 18:48:43;;;;;;;;;;;21.30;43.90;;;;;;6241269;28;20018;-54
2021/12/05 18:51:46;;;;;;;;;;;20.90;43.60;;;;;;6215213;28;19928;-53
2021/12/05 18:54:47;;;;;;;;;;;21.00;43.70;;;;;;6241075;28;19921;-54
2021/12/05 18:57:51;;;;;;;;;;;21.20;43.90;;;;;;6239810;28;19929;-53
2021/12/05 19:07:31;;;;;;;;;;;20.90;43.70;;;;;;6247150;28;20204;-52
2021/12/05 19:13:42;;;;;;;;;;;20.90;43.70;;;;;;6217974;28;20424;-53
2021/12/05 19:16:45;;;;;;;;;;;21.50;44.00;;;;;;6242393;28;20784;-54
2021/12/05 19:19:47;;;;;;;;;;;21.40;44.00;;;;;;6224071;28;20789;-53
2021/12/05 19:22:49;;;;;;;;;;;20.90;43.70;;;;;;6220949;28;19929;-50
2021/12/05 19:25:51;;;;;;;;;;;20.70;43.60;;;;;;6219142;28;21225;-55
2021/12/05 19:28:53;;;;;;;;;;;21.40;44.00;;;;;;6236065;28;19928;-54
2021/12/05 19:31:55;;;;;;;;;;;21.10;43.80;;;;;;6243692;28;20758;-51
2021/12/05 19:34:56;;;;;;;;;;;21.20;43.90;;;;;;6243452;28;20726;-52
2021/12/05 19:37:58;;;;;;;;;;;20.90;43.80;;;;;;6223414;28;19934;-55
2021/12/05 19:41:00;;;;;;;;;;;21.10;43.90;;;;;;6237546;28;19971;-55
2021/12/05 19:44:03;;;;;;;;;;;20.90;43.80;;;;;;6238749;28;20842;-54
2021/12/05 19:47:05;;;;;;;;;;;21.00;43.80;;;;;;6242046;28;20815;-54
2021/12/05 19:50:08;;;;;;;;;;;21.30;44.00;;;;;;6222697;28;20929;-53
2021/12/05 19:53:10;;;;;;;;;;;21.00;43.80;;;;;;6237290;28;20018;-54
2021/12/05 19:56:13;;;;;;;;;;;21.00;43.90;;;;;;6237715;28;20005;-52
2021/12/05 19:59:16;;;;;;;;;;;20.80;43.70;;;;;;6223140;28;20043;-55
2021/12/05 20:02:17;;;;;;;;;;;20.90;44.00;;;;;;6231347;28;19928;-55
2021/12/05 20:05:21;;;;;;;;;;;20.70;43.70;;;;;;6232191;28;19936;-55
2021/12/05 20:08:22;;;;;;;;;;;20.80;43.70;;;;;;6232208;28;20054;-56
2021/12/05 20:11:24;;;;;;;;;;;20.80;43.80;;;;;;6232228;28;19929;-53
2021/12/05 20:14:27;;;;;;;;;;;20.70;43.70;;;;;;6230563;28;19929;-51
2021/12/05 20:17:29;;;;;;;;;;;20.70;43.80;;;;;;6235006;28;19964;-51
2021/12/05 20:20:30;;;;;;;;;;;21.30;44.00;;;;;;6232208;28;20187;-56
2021/12/05 20:23:31;;;;;;;;;;;20.70;43.80;;;;;;6234269;28;19997;-53
2021/12/05 20:26:35;;;;;;;;;;;20.80;43.70;;;;;;6218746;28;19935;-51
2021/12/05 20:29:37;;;;;;;;;;;20.80;43.70;;;;;;6234803;28;19950;-55
2021/12/05 20:32:39;;;;;;;;;;;20.70;43.70;;;;;;6236665;28;20038;-55
2021/12/05 20:35:40;;;;;;;;;;;20.60;43.70;;;;;;6214962;28;21141;-52
2021/12/05 20:38:43;;;;;;;;;;;20.70;43.80;;;;;;6230534;28;19928;-55
2021/12/05 20:41:45;;;;;;;;;;;21.00;43.90;;;;;;6233453;28;19928;-54
2021/12/05 20:44:46;;;;;;;;;;;21.00;44.00;;;;;;6238012;28;19987;-53
2021/12/05 20:47:48;;;;;;;;;;;21.40;44.10;;;;;;6236854;28;19970;-53
2021/12/05 20:50:50;;;;;;;;;;;21.40;44.10;;;;;;6236112;28;19920;-55
2021/12/05 20:53:53;;;;;;;;;;;20.50;43.70;;;;;;6238568;28;19929;-54
2021/12/05 20:56:54;;;;;;;;;;;21.10;44.00;;;;;;6234596;28;20053;-54
2021/12/05 20:59:56;;;;;;;;;;;20.50;43.70;;;;;;6235040;28;20026;-52
2021/12/05 21:02:58;;;;;;;;;;;20.70;43.80;;;;;;6234799;28;20043;-53
2021/12/05 21:06:04;;;;;;;;;;;20.70;43.70;;;;;;6238411;28;20880;-54
2021/12/05 21:09:06;;;;;;;;;;;20.60;43.70;;;;;;6225464;28;21106;-53
2021/12/05 21:12:08;;;;;;;;;;;21.20;44.10;;;;;;6240470;28;19927;-53
2021/12/05 21:15:11;;;;;;;;;;;20.90;43.90;;;;;;6239011;28;20965;-53
2021/12/05 21:18:13;;;;;;;;;;;20.50;43.70;;;;;;6239535;28;19929;-53
2021/12/05 21:21:16;;;;;;;;;;;20.90;43.90;;;;;;6221232;28;19928;-54
2021/12/05 21:24:17;;;;;;;;;;;20.60;43.70;;;;;;6239747;28;19960;-52
2021/12/05 21:27:19;;;;;;;;;;;20.50;43.70;;;;;;6237832;28;20956;-54
2021/12/05 21:30:23;;;;;;;;;;;20.80;43.90;;;;;;6239512;28;20385;-51
2021/12/05 21:33:25;;;;;;;;;;;20.50;43.70;;;;;;6238047;28;19985;-53
2021/12/05 21:36:27;;;;;;;;;;;20.80;43.90;;;;;;6233130;28;20634;-53
2021/12/05 21:39:28;;;;;;;;;;;20.50;43.70;;;;;;6237716;28;20459;-54
2021/12/05 21:42:29;;;;;;;;;;;20.60;43.80;;;;;;6241770;28;19975;-51
2021/12/05 21:45:32;;;;;;;;;;;20.60;43.90;;;;;;6243170;28;20050;-54
2021/12/05 21:48:33;;;;;;;;;;;20.80;43.90;;;;;;6241855;28;19932;-53
2021/12/05 21:51:35;;;;;;;;;;;21.00;44.10;;;;;;6232379;28;20050;-53
2021/12/05 21:54:36;;;;;;;;;;;20.60;43.90;;;;;;6235915;28;19934;-53
2021/12/05 21:57:38;;;;;;;;;;;20.80;43.90;;;;;;6232556;28;19928;-54
2021/12/05 22:00:41;;;;;;;;;;;20.30;43.70;;;;;;6241004;28;20357;-51
2021/12/05 22:03:42;;;;;;;;;;;20.70;43.90;;;;;;6240547;28;20182;-55
2021/12/05 22:06:44;;;;;;;;;;;20.70;43.90;;;;;;6218544;28;19927;-55
2021/12/05 22:09:45;;;;;;;;;;;20.60;43.80;;;;;;6240080;28;19924;-53